createdAt,value
2022-09-21T00:00:48.610Z,7.07
2022-09-21T00:03:16.236Z,7.93
2022-09-21T00:05:43.616Z,7.43
2022-09-21T00:08:12.056Z,8.00
2022-09-21T00:10:39.430Z,7.57
2022-09-21T00:13:08.317Z,7.93
2022-09-21T00:15:35.382Z,8.80
2022-09-21T00:18:03.829Z,8.83
2022-09-21T00:20:30.945Z,8.00
2022-09-21T00:22:58.053Z,8.47
2022-09-21T00:25:25.207Z,8.83
2022-09-21T00:27:52.373Z,8.77
2022-09-21T00:30:19.461Z,9.23
2022-09-21T00:32:46.527Z,8.63
2022-09-21T00:35:13.606Z,9.40
2022-09-21T00:37:40.706Z,9.50
2022-09-21T00:40:08.136Z,9.33
2022-09-21T00:42:35.829Z,9.80
2022-09-21T00:45:03.065Z,8.47
2022-09-21T00:47:43.868Z,8.30
2022-09-21T00:50:13.925Z,8.93
2022-09-21T00:52:42.994Z,9.17
2022-09-21T00:55:15.651Z,16.37
2022-09-21T00:57:43.763Z,13.30
2022-09-21T01:00:11.136Z,14.13
2022-09-21T01:02:38.834Z,17.90
2022-09-21T01:05:07.011Z,13.87
2022-09-21T01:07:35.888Z,18.73
2022-09-21T01:10:05.651Z,14.97
2022-09-21T01:12:43.110Z,15.27
2022-09-21T01:15:25.549Z,21.10
2022-09-21T01:17:57.181Z,13.77
2022-09-21T01:20:38.544Z,13.63
2022-09-21T01:23:09.016Z,15.27
2022-09-21T01:25:45.395Z,9.47
2022-09-21T01:28:24.422Z,7.90
2022-09-21T01:30:53.531Z,6.90
2022-09-21T01:33:28.778Z,6.80
2022-09-21T01:36:01.732Z,6.90
2022-09-21T01:38:32.630Z,5.73
2022-09-21T01:41:02.517Z,4.90
2022-09-21T01:43:35.174Z,3.97
2022-09-21T01:46:03.645Z,4.03
2022-09-21T01:48:33.436Z,3.80
2022-09-21T01:51:02.172Z,3.63
2022-09-21T01:53:37.957Z,4.47
2022-09-21T01:56:16.875Z,4.83
2022-09-21T01:58:46.853Z,5.00
2022-09-21T02:01:17.416Z,4.90
2022-09-21T02:03:48.488Z,4.40
2022-09-21T02:06:16.857Z,5.30
2022-09-21T02:08:44.985Z,5.97
2022-09-21T02:11:13.466Z,6.87
2022-09-21T02:13:43.046Z,6.00
2022-09-21T02:16:13.067Z,7.40
2022-09-21T02:18:40.750Z,8.60
2022-09-21T02:21:12.171Z,8.47
2022-09-21T02:23:52.967Z,9.87
2022-09-21T02:26:43.329Z,10.27
2022-09-21T02:29:11.257Z,9.83
2022-09-21T02:31:58.592Z,9.77
2022-09-21T02:34:31.602Z,9.73
2022-09-21T02:37:10.737Z,15.27
2022-09-21T02:39:43.826Z,11.50
2022-09-21T02:42:12.953Z,10.47
2022-09-21T02:44:41.724Z,8.67
2022-09-21T02:47:09.101Z,9.00
2022-09-21T02:49:38.777Z,8.57
2022-09-21T02:52:12.844Z,7.37
2022-09-21T02:54:40.753Z,7.83
2022-09-21T02:57:08.489Z,6.40
2022-09-21T02:59:35.662Z,7.37
2022-09-21T03:02:04.467Z,5.97
2022-09-21T03:04:32.263Z,6.00
2022-09-21T03:06:59.356Z,8.73
2022-09-21T03:09:26.437Z,9.30
2022-09-21T03:11:53.944Z,8.23
2022-09-21T03:14:21.048Z,8.00
2022-09-21T03:16:48.124Z,10.30
2022-09-21T03:19:15.631Z,9.40
2022-09-21T03:21:44.810Z,13.47
2022-09-21T03:24:12.146Z,10.47
2022-09-21T03:26:39.219Z,8.93
2022-09-21T03:29:06.484Z,5.00
2022-09-21T03:31:34.116Z,4.53
2022-09-21T03:34:01.324Z,4.03
2022-09-21T03:36:28.380Z,3.87
2022-09-21T03:38:55.470Z,4.10
2022-09-21T03:41:22.522Z,4.07
2022-09-21T03:43:49.614Z,4.00
2022-09-21T03:46:17.227Z,4.70
2022-09-21T03:48:47.523Z,4.50
2022-09-21T03:51:14.601Z,4.73
2022-09-21T03:53:41.661Z,4.50
2022-09-21T03:56:08.755Z,4.77
2022-09-21T03:58:35.858Z,4.30
2022-09-21T04:01:03.692Z,4.77
2022-09-21T04:03:31.017Z,5.30
2022-09-21T04:05:58.197Z,5.83
2022-09-21T04:08:25.264Z,6.57
2022-09-21T04:10:52.501Z,7.20
2022-09-21T04:13:19.611Z,6.07
2022-09-21T04:15:46.721Z,11.43
2022-09-21T04:18:13.860Z,8.23
2022-09-21T04:20:41.692Z,11.37
2022-09-21T04:23:09.971Z,12.50
2022-09-21T04:25:37.085Z,9.50
2022-09-21T04:28:04.250Z,20.60
2022-09-21T04:30:37.554Z,12.77
2022-09-21T04:33:05.191Z,13.80
2022-09-21T04:35:32.335Z,14.63
2022-09-21T04:37:59.663Z,19.87
2022-09-21T04:40:28.180Z,18.40
2022-09-21T04:42:55.593Z,14.70
2022-09-21T04:45:23.035Z,17.20
2022-09-21T04:47:50.392Z,13.60
2022-09-21T04:50:17.534Z,15.30
2022-09-21T04:52:44.686Z,17.30
2022-09-21T04:55:11.748Z,11.37
2022-09-21T04:57:38.776Z,14.17
2022-09-21T05:00:06.657Z,15.27
2022-09-21T05:02:33.760Z,12.03
2022-09-21T05:05:00.808Z,14.20
2022-09-21T05:07:27.873Z,12.83
2022-09-21T05:10:03.913Z,13.53
2022-09-21T05:12:38.554Z,9.53
2022-09-21T05:15:07.143Z,12.67
2022-09-21T05:17:34.196Z,17.30
2022-09-21T05:20:01.369Z,15.10
2022-09-21T05:22:28.473Z,14.63
2022-09-21T05:24:55.895Z,10.37
2022-09-21T05:27:22.942Z,10.83
2022-09-21T05:29:50.215Z,13.03
2022-09-21T05:32:17.282Z,15.83
2022-09-21T05:34:44.556Z,13.63
2022-09-21T05:37:11.703Z,13.53
2022-09-21T05:39:38.948Z,11.97
2022-09-21T05:42:06.511Z,12.97
2022-09-21T05:44:33.658Z,9.97
2022-09-21T05:47:12.811Z,9.73
2022-09-21T05:49:57.977Z,7.47
2022-09-21T05:52:33.858Z,7.20
2022-09-21T05:55:10.376Z,8.33
2022-09-21T05:57:56.031Z,5.67
2022-09-21T06:00:23.680Z,8.40
2022-09-21T06:02:59.824Z,5.87
2022-09-21T06:05:27.270Z,8.03
2022-09-21T06:07:54.378Z,8.27
2022-09-21T06:10:21.514Z,4.27
2022-09-21T06:12:48.626Z,5.50
2022-09-21T06:15:16.094Z,4.47
2022-09-21T06:17:43.415Z,5.53
2022-09-21T06:20:10.917Z,3.23
2022-09-21T06:22:38.048Z,2.77
2022-09-21T06:25:05.350Z,3.00
2022-09-21T06:27:32.421Z,2.50
2022-09-21T06:29:59.551Z,2.30
2022-09-21T06:32:26.774Z,2.00
2022-09-21T06:34:54.098Z,2.13
2022-09-21T06:37:21.217Z,2.67
2022-09-21T06:39:48.305Z,3.67
2022-09-21T06:42:15.480Z,3.00
2022-09-21T06:44:42.597Z,2.43
2022-09-21T06:47:09.671Z,4.47
2022-09-21T06:49:41.734Z,3.10
2022-09-21T06:52:09.662Z,7.10
2022-09-21T06:54:36.817Z,4.27
2022-09-21T06:57:04.096Z,5.60
2022-09-21T06:59:31.201Z,5.10
2022-09-21T07:01:58.560Z,3.77
2022-09-21T07:04:26.005Z,3.97
2022-09-21T07:06:53.155Z,4.20
2022-09-21T07:12:08.128Z,7.10
2022-09-21T07:14:35.208Z,5.37
2022-09-21T07:17:02.381Z,5.70
2022-09-21T07:19:29.487Z,5.10
2022-09-21T07:21:56.647Z,3.17
2022-09-21T07:24:23.817Z,4.23
2022-09-21T07:26:50.868Z,4.40
2022-09-21T07:29:17.902Z,3.63
2022-09-21T07:31:45.374Z,3.30
2022-09-21T07:34:12.547Z,4.03
2022-09-21T07:36:39.686Z,4.73
2022-09-21T07:39:07.059Z,3.80
2022-09-21T07:41:34.200Z,4.23
2022-09-21T07:44:01.353Z,6.17
2022-09-21T07:46:28.453Z,3.50
2022-09-21T07:48:55.945Z,3.40
2022-09-21T07:51:23.677Z,3.87
2022-09-21T07:53:56.651Z,3.47
2022-09-21T07:56:23.733Z,5.33
2022-09-21T07:59:05.916Z,3.77
2022-09-21T08:01:37.165Z,4.10
2022-09-21T08:04:05.316Z,3.60
2022-09-21T08:06:33.538Z,3.77
2022-09-21T08:09:01.074Z,4.80
2022-09-21T08:11:30.242Z,4.47
2022-09-21T08:13:58.705Z,4.87
2022-09-21T08:16:26.272Z,5.30
2022-09-21T08:18:53.429Z,4.60
2022-09-21T08:21:20.703Z,5.00
2022-09-21T08:23:50.571Z,4.60
2022-09-21T08:26:19.481Z,4.93
2022-09-21T08:28:49.214Z,6.90
2022-09-21T08:31:17.606Z,9.20
2022-09-21T08:33:45.736Z,9.20
2022-09-21T08:36:12.893Z,9.07
2022-09-21T08:38:40.415Z,8.57
2022-09-21T08:41:18.813Z,8.33
2022-09-21T08:43:47.915Z,9.47
2022-09-21T08:46:17.491Z,8.27
2022-09-21T08:48:48.517Z,7.90
2022-09-21T08:51:18.458Z,8.80
2022-09-21T08:53:47.301Z,8.97
2022-09-21T08:56:15.563Z,8.80
2022-09-21T08:58:43.582Z,7.87
2022-09-21T09:01:29.740Z,9.50
2022-09-21T09:04:05.284Z,8.90
2022-09-21T09:06:35.832Z,9.17
2022-09-21T09:09:21.544Z,10.30
2022-09-21T09:11:59.969Z,12.20
2022-09-21T09:14:45.290Z,13.50
2022-09-21T09:17:15.114Z,15.17
2022-09-21T09:19:46.679Z,17.90
2022-09-21T09:22:15.952Z,16.17
2022-09-21T09:24:46.423Z,13.27
2022-09-21T09:27:18.840Z,12.23
2022-09-21T09:29:45.953Z,10.60
2022-09-21T09:32:14.973Z,8.03
2022-09-21T09:34:46.435Z,7.60
2022-09-21T09:37:14.842Z,6.97
2022-09-21T09:39:45.241Z,6.97
2022-09-21T09:42:24.361Z,6.97
2022-09-21T09:45:10.019Z,6.22
2022-09-21T09:47:37.294Z,5.88
2022-09-21T09:50:07.236Z,6.10
2022-09-21T09:52:34.733Z,6.05
2022-09-21T09:55:06.966Z,5.80
2022-09-21T09:57:34.119Z,5.28
2022-09-21T10:00:04.073Z,5.07
2022-09-21T10:02:31.312Z,5.20
2022-09-21T10:05:01.463Z,4.70
2022-09-21T10:07:54.762Z,4.47
2022-09-21T10:10:36.302Z,5.00
2022-09-21T10:13:03.340Z,5.03
2022-09-21T10:15:30.775Z,5.10
2022-09-21T10:17:59.028Z,4.85
2022-09-21T10:20:26.162Z,5.45
2022-09-21T10:22:57.065Z,4.82
2022-09-21T10:25:24.521Z,5.55
2022-09-21T10:27:52.300Z,4.93
2022-09-21T10:30:31.830Z,4.55
2022-09-21T10:32:59.919Z,4.53
2022-09-21T10:35:27.209Z,4.18
2022-09-21T10:38:11.179Z,4.13
2022-09-21T10:40:39.291Z,4.13
2022-09-21T10:43:06.677Z,4.10
2022-09-21T10:45:36.995Z,3.30
2022-09-21T10:48:07.119Z,3.30
2022-09-21T10:50:36.923Z,3.55
2022-09-21T10:53:10.021Z,3.67
2022-09-21T10:55:44.004Z,3.20
2022-09-21T10:58:20.064Z,3.10
2022-09-21T11:00:51.798Z,3.28
2022-09-21T11:03:30.773Z,3.10
2022-09-21T11:06:02.492Z,3.28
2022-09-21T11:08:34.007Z,3.47
2022-09-21T11:11:09.505Z,2.70
2022-09-21T11:13:45.910Z,3.10
2022-09-21T11:16:25.922Z,2.88
2022-09-21T11:18:58.604Z,2.53
2022-09-21T11:21:44.712Z,2.40
2022-09-21T11:24:21.647Z,2.55
2022-09-21T11:26:56.728Z,1.50
2022-09-21T11:29:33.608Z,1.52
2022-09-21T11:32:06.472Z,1.40
2022-09-21T11:34:39.350Z,1.60
2022-09-21T11:37:24.956Z,1.10
2022-09-21T11:39:58.281Z,2.85
2022-09-21T11:42:25.506Z,2.47
2022-09-21T11:44:58.266Z,1.83
2022-09-21T11:47:28.149Z,1.10
2022-09-21T11:50:31.163Z,0.90
2022-09-21T11:53:01.680Z,0.90
2022-09-21T11:55:37.802Z,0.93
2022-09-21T11:58:10.997Z,0.95
2022-09-21T12:00:59.069Z,1.05
2022-09-21T12:03:47.869Z,1.73
2022-09-21T12:06:24.158Z,1.08
2022-09-21T12:09:09.328Z,1.00
2022-09-21T12:11:44.355Z,1.00
2022-09-21T12:14:11.412Z,1.20
2022-09-21T12:16:44.757Z,1.13
2022-09-21T12:19:15.385Z,1.08
2022-09-21T12:21:45.800Z,1.05
2022-09-21T12:24:20.266Z,1.00
2022-09-21T12:26:50.258Z,1.00
2022-09-21T12:29:23.026Z,1.10
2022-09-21T12:32:03.512Z,1.20
2022-09-21T12:34:56.620Z,1.00
2022-09-21T12:37:32.784Z,0.73
2022-09-21T12:40:21.361Z,1.10
2022-09-21T12:43:11.867Z,0.95
2022-09-21T12:45:45.250Z,0.90
2022-09-21T12:48:21.132Z,1.23
2022-09-21T12:51:12.050Z,0.98
2022-09-21T12:53:41.075Z,0.93
2022-09-21T12:56:13.370Z,0.70
2022-09-21T12:59:09.713Z,0.88
2022-09-21T13:01:50.427Z,1.00
2022-09-21T13:04:22.254Z,1.10
2022-09-21T13:06:51.538Z,0.80
2022-09-21T13:09:19.830Z,0.80
2022-09-21T13:11:56.466Z,0.80
2022-09-21T13:14:29.382Z,0.85
2022-09-21T13:16:58.610Z,0.80
2022-09-21T13:19:26.696Z,0.70
2022-09-21T13:22:16.056Z,0.85
2022-09-21T13:24:44.973Z,0.80
2022-09-21T13:27:13.798Z,0.82
2022-09-21T13:29:42.702Z,0.85
2022-09-21T13:32:13.834Z,1.10
2022-09-21T13:34:42.625Z,1.00
2022-09-21T13:37:16.653Z,0.88
2022-09-21T13:39:43.671Z,1.05
2022-09-21T13:42:29.362Z,1.00
2022-09-21T13:45:00.625Z,0.90
2022-09-21T13:47:41.658Z,1.00
2022-09-21T13:50:13.165Z,0.90
2022-09-21T13:52:44.363Z,1.10
2022-09-21T13:55:41.719Z,0.93
2022-09-21T13:58:27.263Z,1.20
2022-09-21T14:00:59.776Z,1.02
2022-09-21T14:03:32.950Z,1.05
2022-09-21T14:06:06.837Z,1.10
2022-09-21T14:08:36.439Z,1.10
2022-09-21T14:11:07.940Z,1.10
2022-09-21T14:13:36.540Z,1.10
2022-09-21T14:16:22.506Z,1.20
2022-09-21T14:18:49.670Z,1.10
2022-09-21T14:21:18.344Z,1.20
2022-09-21T14:24:05.096Z,0.80
2022-09-21T14:26:32.893Z,1.20
2022-09-21T14:29:06.253Z,1.10
2022-09-21T14:31:35.259Z,1.20
2022-09-21T14:34:04.621Z,0.90
2022-09-21T14:36:43.015Z,1.20
2022-09-21T14:39:18.011Z,0.90
2022-09-21T14:41:45.977Z,1.23
2022-09-21T14:44:21.370Z,1.08
2022-09-21T14:46:48.542Z,1.17
2022-09-21T14:49:35.151Z,1.00
2022-09-21T14:52:22.485Z,1.00
2022-09-21T14:55:17.186Z,0.88
2022-09-21T14:57:48.454Z,1.00
2022-09-21T15:00:22.049Z,1.10
2022-09-21T15:02:52.036Z,1.00
2022-09-21T15:05:41.121Z,1.10
2022-09-21T15:08:49.738Z,1.00
2022-09-21T15:11:23.133Z,0.95
2022-09-21T15:14:16.407Z,1.02
2022-09-21T15:16:45.743Z,1.40
2022-09-21T15:19:13.769Z,1.17
2022-09-21T15:21:43.476Z,1.13
2022-09-21T15:24:31.145Z,1.10
2022-09-21T15:27:10.333Z,1.40
2022-09-21T15:29:38.394Z,1.27
2022-09-21T15:32:06.135Z,2.42
2022-09-21T15:34:33.532Z,1.00
2022-09-21T15:37:07.447Z,1.27
2022-09-21T15:39:34.857Z,1.20
2022-09-21T15:42:11.343Z,1.20
2022-09-21T15:44:39.372Z,1.60
2022-09-21T15:47:12.458Z,1.40
2022-09-21T15:49:39.729Z,1.13
2022-09-21T15:52:12.940Z,1.53
2022-09-21T15:54:46.071Z,1.60
2022-09-21T15:57:40.499Z,1.40
2022-09-21T16:00:08.236Z,1.07
2022-09-21T16:02:37.920Z,1.37
2022-09-21T16:05:05.793Z,1.10
2022-09-21T16:07:34.612Z,1.13
2022-09-21T16:10:02.361Z,1.30
2022-09-21T16:12:33.331Z,1.30
2022-09-21T16:15:20.681Z,1.43
2022-09-21T16:17:56.921Z,1.20
2022-09-21T16:20:24.608Z,1.37
2022-09-21T16:22:54.770Z,1.40
2022-09-21T16:25:30.137Z,1.90
2022-09-21T16:27:58.636Z,1.60
2022-09-21T16:30:46.087Z,1.70
2022-09-21T16:33:31.748Z,1.43
2022-09-21T16:35:58.814Z,1.80
2022-09-21T16:38:26.323Z,4.80
2022-09-21T16:40:54.669Z,2.70
2022-09-21T16:43:23.329Z,2.57
2022-09-21T16:45:50.710Z,3.63
2022-09-21T16:48:18.838Z,2.53
2022-09-21T16:50:46.752Z,2.17
2022-09-21T16:53:13.832Z,2.00
2022-09-21T16:55:43.203Z,2.30
2022-09-21T16:58:10.299Z,1.93
2022-09-21T17:00:39.983Z,1.90
2022-09-21T17:03:07.108Z,1.90
2022-09-21T17:05:34.190Z,1.80
2022-09-21T17:08:01.310Z,2.13
2022-09-21T17:10:31.746Z,2.23
2022-09-21T17:12:59.187Z,2.07
2022-09-21T17:15:26.373Z,2.17
2022-09-21T17:17:53.517Z,4.17
2022-09-21T17:20:32.327Z,4.43
2022-09-21T17:23:00.361Z,3.70
2022-09-21T17:25:28.123Z,5.20
2022-09-21T17:27:57.997Z,6.50
2022-09-21T17:30:25.976Z,5.03
2022-09-21T17:32:53.567Z,4.50
2022-09-21T17:35:26.512Z,3.60
2022-09-21T17:37:54.641Z,4.00
2022-09-21T17:40:24.040Z,8.60
2022-09-21T17:42:52.745Z,16.77
2022-09-21T17:45:38.905Z,14.07
2022-09-21T17:48:06.650Z,12.43
2022-09-21T17:50:33.802Z,9.17
2022-09-21T17:53:19.509Z,7.43
2022-09-21T17:55:54.414Z,7.60
2022-09-21T17:58:27.715Z,4.53
2022-09-21T18:01:01.337Z,3.80
2022-09-21T18:03:29.555Z,3.20
2022-09-21T18:06:00.506Z,3.30
2022-09-21T18:08:33.382Z,3.00
2022-09-21T18:11:07.029Z,3.10
2022-09-21T18:13:34.350Z,2.80
2022-09-21T18:16:19.756Z,2.80
2022-09-21T18:18:51.750Z,2.40
2022-09-21T18:21:20.556Z,2.60
2022-09-21T18:24:02.880Z,2.50
2022-09-21T18:26:30.205Z,2.60
2022-09-21T18:28:58.130Z,2.30
2022-09-21T18:31:31.607Z,2.70
2022-09-21T18:34:13.135Z,2.53
2022-09-21T18:37:03.865Z,2.70
2022-09-21T18:39:31.291Z,2.50
2022-09-21T18:41:58.332Z,2.33
2022-09-21T18:44:31.749Z,2.40
2022-09-21T18:47:05.664Z,2.20
2022-09-21T18:49:33.225Z,2.60
2022-09-21T18:52:24.876Z,2.93
2022-09-21T18:54:51.980Z,3.30
2022-09-21T18:57:19.217Z,3.80
2022-09-21T18:59:46.574Z,3.20
2022-09-21T19:02:15.468Z,3.50
2022-09-21T19:04:43.629Z,3.10
2022-09-21T19:07:10.746Z,2.87
2022-09-21T19:09:56.687Z,2.80
2022-09-21T19:12:39.094Z,2.77
2022-09-21T19:15:55.474Z,3.00
2022-09-21T19:18:34.374Z,3.20
2022-09-21T19:21:20.333Z,3.53
2022-09-21T19:24:02.830Z,3.60
2022-09-21T19:26:35.930Z,3.70
2022-09-21T19:29:14.247Z,3.70
2022-09-21T19:31:41.402Z,4.20
2022-09-21T19:34:15.649Z,4.87
2022-09-21T19:36:42.975Z,4.60
2022-09-21T19:39:10.849Z,4.53
2022-09-21T19:41:50.273Z,4.93
2022-09-21T19:44:34.585Z,4.57
2022-09-21T19:47:16.826Z,4.27
2022-09-21T19:49:49.178Z,4.50
2022-09-21T19:52:17.826Z,4.53
2022-09-21T19:55:04.269Z,4.70
2022-09-21T19:57:50.400Z,4.20
2022-09-21T20:00:18.739Z,4.53
2022-09-21T20:02:48.829Z,4.63
2022-09-21T20:05:23.237Z,4.80
2022-09-21T20:07:59.398Z,4.83
2022-09-21T20:10:35.273Z,4.53
2022-09-21T20:13:19.794Z,5.13
2022-09-21T20:15:50.004Z,5.23
2022-09-21T20:18:25.981Z,5.50
2022-09-21T20:20:53.214Z,5.73
2022-09-21T20:23:20.495Z,6.27
2022-09-21T20:25:53.282Z,6.80
2022-09-21T20:28:20.709Z,5.53
2022-09-21T20:30:47.835Z,5.30
2022-09-21T20:33:15.981Z,5.17
2022-09-21T20:35:44.017Z,5.50
2022-09-21T20:38:11.402Z,5.30
2022-09-21T20:40:40.417Z,5.60
2022-09-21T20:43:09.105Z,5.83
2022-09-21T20:45:36.381Z,5.43
2022-09-21T20:48:15.716Z,5.50
2022-09-21T20:50:43.520Z,5.70
2022-09-21T20:53:10.848Z,9.40
2022-09-21T20:55:38.452Z,7.83
2022-09-21T20:58:05.820Z,6.73
2022-09-21T21:00:32.963Z,5.93
2022-09-21T21:03:00.269Z,6.07
2022-09-21T21:05:28.990Z,6.67
2022-09-21T21:07:56.644Z,6.57
2022-09-21T21:10:24.012Z,6.73
2022-09-21T21:12:51.440Z,6.60
2022-09-21T21:15:18.807Z,6.20
2022-09-21T21:17:47.374Z,6.50
2022-09-21T21:20:16.272Z,6.10
2022-09-21T21:22:44.226Z,6.63
2022-09-21T21:25:11.341Z,7.07
2022-09-21T21:27:38.638Z,7.23
2022-09-21T21:30:06.963Z,7.03
2022-09-21T21:32:34.401Z,6.60
2022-09-21T21:35:01.555Z,6.93
2022-09-21T21:37:28.960Z,7.07
2022-09-21T21:39:56.964Z,6.73
2022-09-21T21:42:29.419Z,6.57
2022-09-21T21:44:56.745Z,6.97
2022-09-21T21:47:40.789Z,6.87
2022-09-21T21:50:08.304Z,6.57
2022-09-21T21:52:35.406Z,6.30
2022-09-21T21:55:02.586Z,6.33
2022-09-21T21:57:29.709Z,6.83
2022-09-21T21:59:56.775Z,7.00
2022-09-21T22:02:24.304Z,7.03
2022-09-21T22:04:51.447Z,6.23
2022-09-21T22:07:18.498Z,6.83
2022-09-21T22:09:45.572Z,6.63
2022-09-21T22:12:12.697Z,6.80
2022-09-21T22:14:39.992Z,6.73
2022-09-21T22:17:07.078Z,6.77
2022-09-21T22:19:34.133Z,7.17
2022-09-21T22:22:01.204Z,7.30
2022-09-21T22:24:28.354Z,7.50
2022-09-21T22:26:55.762Z,7.40
2022-09-21T22:29:22.862Z,7.13
2022-09-21T22:31:50.875Z,7.07
2022-09-21T22:34:17.985Z,7.20
2022-09-21T22:36:45.419Z,7.87
2022-09-21T22:39:12.904Z,7.57
2022-09-21T22:41:41.441Z,7.63
2022-09-21T22:44:09.102Z,7.73
2022-09-21T22:46:36.660Z,7.40
2022-09-21T22:49:04.084Z,7.17
2022-09-21T22:51:31.569Z,7.40
2022-09-21T22:53:58.967Z,7.00
2022-09-21T22:56:27.575Z,6.80
2022-09-21T22:58:55.789Z,6.87
2022-09-21T23:01:27.136Z,6.33
2022-09-21T23:03:56.116Z,6.97
2022-09-21T23:06:26.068Z,7.43
2022-09-21T23:08:53.989Z,7.97
2022-09-21T23:11:21.806Z,7.73
2022-09-21T23:13:49.337Z,8.00
2022-09-21T23:16:17.407Z,8.63
2022-09-21T23:18:44.664Z,8.60
2022-09-21T23:21:13.561Z,9.00
2022-09-21T23:23:40.921Z,8.80
2022-09-21T23:26:17.288Z,8.43
2022-09-21T23:28:45.820Z,8.13
2022-09-21T23:31:14.454Z,8.13
2022-09-21T23:33:42.642Z,8.07
2022-09-21T23:36:10.688Z,7.87
2022-09-21T23:38:37.907Z,7.57
2022-09-21T23:41:09.737Z,7.37
2022-09-21T23:43:37.284Z,8.00
2022-09-21T23:46:05.193Z,7.40
2022-09-21T23:48:32.868Z,8.63
2022-09-21T23:51:00.250Z,8.10
2022-09-21T23:53:28.200Z,7.97
2022-09-21T23:55:55.666Z,8.03
2022-09-21T23:58:23.177Z,7.47
